Palomar Park, California
Current Conditions -  °F | °C
As of 8:47 PM on Monday 20 Oct 2014 (Local Time) from KSQL Reporting Station
Few Clouds Few Clouds  
Wind Chill: 63°   Ceiling: Unl
Heat Index: 63°   Visibility: 10mi
Dew Point: 55°   Wind: 3mph
Humidity: 77%   Direction: 250°WSW
Pressure: 30.03"   Gusts: NA
Location:  37.4497°N, 122.329°W
Report Text: KSQL 210347Z 25003KT 10SM FEW030 17/13 A3003 RMK LAST
Loading
Personal Weather Stations






























Interactive Weather Map
Tropical Storm Tracking
New forecast layout! Learn more

10-Day Weather Forecast

Advertisements
Track Severe Weather on mobile